sensor_id;sensor_type;location;lat;lon;timestamp;temperature;humidity
46319;DHT22;32042;50.916;2.926;2023-01-31T00:01:13;4.40;99.90
46319;DHT22;32042;50.916;2.926;2023-01-31T00:03:39;4.30;99.90
46319;DHT22;32042;50.916;2.926;2023-01-31T00:06:28;4.30;99.90
46319;DHT22;32042;50.916;2.926;2023-01-31T00:08:54;4.30;99.90
46319;DHT22;32042;50.916;2.926;2023-01-31T00:11:22;4.30;99.90
46319;DHT22;32042;50.916;2.926;2023-01-31T00:13:49;4.20;99.90
46319;DHT22;32042;50.916;2.926;2023-01-31T00:16:15;4.10;99.90
46319;DHT22;32042;50.916;2.926;2023-01-31T00:18:42;4.10;99.90
46319;DHT22;32042;50.916;2.926;2023-01-31T00:21:18;4.10;99.90
46319;DHT22;32042;50.916;2.926;2023-01-31T00:23:45;4.00;99.90
46319;DHT22;32042;50.916;2.926;2023-01-31T00:26:18;4.00;99.90
46319;DHT22;32042;50.916;2.926;2023-01-31T00:28:45;4.00;99.90
46319;DHT22;32042;50.916;2.926;2023-01-31T00:31:12;4.00;99.90
46319;DHT22;32042;50.916;2.926;2023-01-31T00:33:40;3.90;99.90
46319;DHT22;32042;50.916;2.926;2023-01-31T00:36:09;3.80;99.90
46319;DHT22;32042;50.916;2.926;2023-01-31T00:38:35;3.80;99.90
46319;DHT22;32042;50.916;2.926;2023-01-31T00:41:01;3.70;99.90
46319;DHT22;32042;50.916;2.926;2023-01-31T00:43:29;3.70;99.90
46319;DHT22;32042;50.916;2.926;2023-01-31T00:45:55;3.70;99.90
46319;DHT22;32042;50.916;2.926;2023-01-31T00:48:21;3.70;99.90
46319;DHT22;32042;50.916;2.926;2023-01-31T00:50:47;3.70;99.90
46319;DHT22;32042;50.916;2.926;2023-01-31T00:53:13;3.70;99.90
46319;DHT22;32042;50.916;2.926;2023-01-31T00:55:38;3.70;99.90
46319;DHT22;32042;50.916;2.926;2023-01-31T00:58:04;3.70;99.90
46319;DHT22;32042;50.916;2.926;2023-01-31T01:00:30;3.70;99.90
46319;DHT22;32042;50.916;2.926;2023-01-31T01:02:56;3.70;99.90
46319;DHT22;32042;50.916;2.926;2023-01-31T01:05:22;3.70;99.90
46319;DHT22;32042;50.916;2.926;2023-01-31T01:07:47;3.70;99.90
46319;DHT22;32042;50.916;2.926;2023-01-31T01:10:13;3.70;99.90
46319;DHT22;32042;50.916;2.926;2023-01-31T01:12:39;3.70;99.90
46319;DHT22;32042;50.916;2.926;2023-01-31T01:15:05;3.60;99.90
46319;DHT22;32042;50.916;2.926;2023-01-31T01:17:31;3.60;99.90
46319;DHT22;32042;50.916;2.926;2023-01-31T01:19:57;3.60;99.90
46319;DHT22;32042;50.916;2.926;2023-01-31T01:22:22;3.60;99.90
46319;DHT22;32042;50.916;2.926;2023-01-31T01:24:48;3.60;99.90
46319;DHT22;32042;50.916;2.926;2023-01-31T01:27:14;3.60;99.90
46319;DHT22;32042;50.916;2.926;2023-01-31T01:29:39;3.60;99.90
46319;DHT22;32042;50.916;2.926;2023-01-31T01:32:05;3.50;99.90
46319;DHT22;32042;50.916;2.926;2023-01-31T01:34:32;3.50;99.90
46319;DHT22;32042;50.916;2.926;2023-01-31T01:36:59;3.50;99.90
46319;DHT22;32042;50.916;2.926;2023-01-31T01:39:25;3.50;99.90
46319;DHT22;32042;50.916;2.926;2023-01-31T01:41:54;3.50;99.90
46319;DHT22;32042;50.916;2.926;2023-01-31T01:44:47;3.50;99.90
46319;DHT22;32042;50.916;2.926;2023-01-31T01:47:17;3.50;99.90
46319;DHT22;32042;50.916;2.926;2023-01-31T01:49:52;3.50;99.90
46319;DHT22;32042;50.916;2.926;2023-01-31T01:52:19;3.50;99.90
46319;DHT22;32042;50.916;2.926;2023-01-31T01:54:51;3.40;99.90
46319;DHT22;32042;50.916;2.926;2023-01-31T01:57:23;3.40;99.90
46319;DHT22;32042;50.916;2.926;2023-01-31T02:02:29;3.40;99.90
46319;DHT22;32042;50.916;2.926;2023-01-31T02:04:55;3.30;99.90
46319;DHT22;32042;50.916;2.926;2023-01-31T02:07:21;3.20;99.90
46319;DHT22;32042;50.916;2.926;2023-01-31T02:10:00;3.20;99.90
46319;DHT22;32042;50.916;2.926;2023-01-31T02:12:28;3.20;99.90
46319;DHT22;32042;50.916;2.926;2023-01-31T02:14:55;3.20;99.90
46319;DHT22;32042;50.916;2.926;2023-01-31T02:17:21;3.20;99.90
46319;DHT22;32042;50.916;2.926;2023-01-31T02:34:14;3.10;99.90
46319;DHT22;32042;50.916;2.926;2023-01-31T02:40:07;3.10;99.90
46319;DHT22;32042;50.916;2.926;2023-01-31T02:48:17;3.10;99.90
46319;DHT22;32042;50.916;2.926;2023-01-31T02:53:34;3.10;99.90
46319;DHT22;32042;50.916;2.926;2023-01-31T02:56:31;3.00;99.90
46319;DHT22;32042;50.916;2.926;2023-01-31T03:01:39;3.20;99.90
46319;DHT22;32042;50.916;2.926;2023-01-31T03:04:07;3.10;99.90
46319;DHT22;32042;50.916;2.926;2023-01-31T03:09:10;3.10;99.90
46319;DHT22;32042;50.916;2.926;2023-01-31T03:14:32;3.20;99.90
46319;DHT22;32042;50.916;2.926;2023-01-31T03:22:53;3.20;99.90
46319;DHT22;32042;50.916;2.926;2023-01-31T03:25:22;3.20;99.90
46319;DHT22;32042;50.916;2.926;2023-01-31T03:27:53;3.30;99.90
46319;DHT22;32042;50.916;2.926;2023-01-31T03:30:36;3.30;99.90
46319;DHT22;32042;50.916;2.926;2023-01-31T03:33:16;3.40;99.90
46319;DHT22;32042;50.916;2.926;2023-01-31T03:35:50;3.40;99.90
46319;DHT22;32042;50.916;2.926;2023-01-31T03:38:21;3.40;99.90
46319;DHT22;32042;50.916;2.926;2023-01-31T03:40:55;3.40;99.90
46319;DHT22;32042;50.916;2.926;2023-01-31T03:45:59;3.50;99.90
46319;DHT22;32042;50.916;2.926;2023-01-31T03:48:30;3.60;99.90
46319;DHT22;32042;50.916;2.926;2023-01-31T03:50:59;3.60;99.90
46319;DHT22;32042;50.916;2.926;2023-01-31T03:56:20;3.50;99.90
46319;DHT22;32042;50.916;2.926;2023-01-31T03:58:50;3.50;99.90
46319;DHT22;32042;50.916;2.926;2023-01-31T04:01:18;3.50;99.90
46319;DHT22;32042;50.916;2.926;2023-01-31T04:04:08;3.50;99.90
46319;DHT22;32042;50.916;2.926;2023-01-31T04:06:35;3.50;99.90
46319;DHT22;32042;50.916;2.926;2023-01-31T04:09:00;3.50;99.90
46319;DHT22;32042;50.916;2.926;2023-01-31T04:11:26;3.50;99.90
46319;DHT22;32042;50.916;2.926;2023-01-31T04:13:52;3.50;99.90
46319;DHT22;32042;50.916;2.926;2023-01-31T04:16:18;3.60;99.90
46319;DHT22;32042;50.916;2.926;2023-01-31T04:18:44;3.60;99.90
46319;DHT22;32042;50.916;2.926;2023-01-31T04:21:10;3.60;99.90
46319;DHT22;32042;50.916;2.926;2023-01-31T04:23:35;3.70;99.90
46319;DHT22;32042;50.916;2.926;2023-01-31T04:26:01;3.70;99.90
46319;DHT22;32042;50.916;2.926;2023-01-31T04:28:27;3.70;99.90
46319;DHT22;32042;50.916;2.926;2023-01-31T04:30:54;3.70;99.90
46319;DHT22;32042;50.916;2.926;2023-01-31T04:33:21;3.70;99.90
46319;DHT22;32042;50.916;2.926;2023-01-31T04:35:46;3.80;99.90
46319;DHT22;32042;50.916;2.926;2023-01-31T04:38:12;3.80;99.90
46319;DHT22;32042;50.916;2.926;2023-01-31T04:40:38;3.80;99.90
46319;DHT22;32042;50.916;2.926;2023-01-31T04:43:03;3.90;99.90
46319;DHT22;32042;50.916;2.926;2023-01-31T04:45:29;3.90;99.90
46319;DHT22;32042;50.916;2.926;2023-01-31T04:47:55;4.00;99.90
46319;DHT22;32042;50.916;2.926;2023-01-31T04:50:20;4.00;99.90
46319;DHT22;32042;50.916;2.926;2023-01-31T04:52:49;4.10;99.90
46319;DHT22;32042;50.916;2.926;2023-01-31T04:55:16;4.10;99.90
46319;DHT22;32042;50.916;2.926;2023-01-31T04:57:41;4.10;99.90
46319;DHT22;32042;50.916;2.926;2023-01-31T05:00:08;4.10;99.90
46319;DHT22;32042;50.916;2.926;2023-01-31T05:02:34;4.10;99.90
46319;DHT22;32042;50.916;2.926;2023-01-31T05:05:00;4.10;99.90
46319;DHT22;32042;50.916;2.926;2023-01-31T05:07:26;4.10;99.90
46319;DHT22;32042;50.916;2.926;2023-01-31T05:09:51;4.10;99.90
46319;DHT22;32042;50.916;2.926;2023-01-31T05:12:17;4.10;99.90
46319;DHT22;32042;50.916;2.926;2023-01-31T05:14:42;4.20;99.90
46319;DHT22;32042;50.916;2.926;2023-01-31T05:17:08;4.20;99.90
46319;DHT22;32042;50.916;2.926;2023-01-31T05:19:34;4.20;99.90
46319;DHT22;32042;50.916;2.926;2023-01-31T05:21:59;4.20;99.90
46319;DHT22;32042;50.916;2.926;2023-01-31T05:24:34;4.20;99.90
46319;DHT22;32042;50.916;2.926;2023-01-31T05:27:01;4.20;99.90
46319;DHT22;32042;50.916;2.926;2023-01-31T05:29:30;4.20;99.90
46319;DHT22;32042;50.916;2.926;2023-01-31T05:31:57;4.20;99.90
46319;DHT22;32042;50.916;2.926;2023-01-31T05:34:23;4.20;99.90
46319;DHT22;32042;50.916;2.926;2023-01-31T05:36:52;4.20;99.90
46319;DHT22;32042;50.916;2.926;2023-01-31T05:39:18;4.20;99.90
46319;DHT22;32042;50.916;2.926;2023-01-31T05:41:44;4.20;99.90
46319;DHT22;32042;50.916;2.926;2023-01-31T05:44:09;4.20;99.90
46319;DHT22;32042;50.916;2.926;2023-01-31T05:46:36;4.20;99.90
46319;DHT22;32042;50.916;2.926;2023-01-31T05:49:02;4.20;99.90
46319;DHT22;32042;50.916;2.926;2023-01-31T05:51:28;4.20;99.90
46319;DHT22;32042;50.916;2.926;2023-01-31T05:53:53;4.20;99.90
46319;DHT22;32042;50.916;2.926;2023-01-31T05:56:20;4.20;99.90
46319;DHT22;32042;50.916;2.926;2023-01-31T05:58:46;4.20;99.90
46319;DHT22;32042;50.916;2.926;2023-01-31T06:01:19;4.20;99.90
46319;DHT22;32042;50.916;2.926;2023-01-31T06:03:45;4.30;99.90
46319;DHT22;32042;50.916;2.926;2023-01-31T06:06:12;4.30;99.90
46319;DHT22;32042;50.916;2.926;2023-01-31T06:08:38;4.30;99.90
46319;DHT22;32042;50.916;2.926;2023-01-31T06:11:04;4.30;99.90
46319;DHT22;32042;50.916;2.926;2023-01-31T06:13:31;4.30;99.90
46319;DHT22;32042;50.916;2.926;2023-01-31T06:15:56;4.40;99.90
46319;DHT22;32042;50.916;2.926;2023-01-31T06:18:22;4.40;99.90
46319;DHT22;32042;50.916;2.926;2023-01-31T06:20:48;4.40;99.90
46319;DHT22;32042;50.916;2.926;2023-01-31T06:23:14;4.40;99.90
46319;DHT22;32042;50.916;2.926;2023-01-31T06:25:39;4.40;99.90
46319;DHT22;32042;50.916;2.926;2023-01-31T06:28:05;4.40;99.90
46319;DHT22;32042;50.916;2.926;2023-01-31T06:30:31;4.40;99.90
46319;DHT22;32042;50.916;2.926;2023-01-31T06:33:00;4.40;99.90
46319;DHT22;32042;50.916;2.926;2023-01-31T06:35:26;4.40;99.90
46319;DHT22;32042;50.916;2.926;2023-01-31T06:37:53;4.40;99.90
46319;DHT22;32042;50.916;2.926;2023-01-31T06:40:19;4.40;99.90
46319;DHT22;32042;50.916;2.926;2023-01-31T06:42:44;4.40;99.90
46319;DHT22;32042;50.916;2.926;2023-01-31T06:45:10;4.30;99.90
46319;DHT22;32042;50.916;2.926;2023-01-31T06:47:36;4.30;99.90
46319;DHT22;32042;50.916;2.926;2023-01-31T06:50:02;4.20;99.90
46319;DHT22;32042;50.916;2.926;2023-01-31T06:52:28;4.20;99.90
46319;DHT22;32042;50.916;2.926;2023-01-31T06:54:54;4.20;99.90
46319;DHT22;32042;50.916;2.926;2023-01-31T06:57:19;4.20;99.90
46319;DHT22;32042;50.916;2.926;2023-01-31T06:59:45;4.20;99.90
46319;DHT22;32042;50.916;2.926;2023-01-31T07:02:11;4.20;99.90
46319;DHT22;32042;50.916;2.926;2023-01-31T07:04:37;4.20;99.90
46319;DHT22;32042;50.916;2.926;2023-01-31T07:07:03;4.30;99.90
46319;DHT22;32042;50.916;2.926;2023-01-31T07:09:28;4.30;99.90
46319;DHT22;32042;50.916;2.926;2023-01-31T07:11:54;4.30;99.90
46319;DHT22;32042;50.916;2.926;2023-01-31T07:14:20;4.30;99.90
46319;DHT22;32042;50.916;2.926;2023-01-31T07:16:45;4.40;99.90
46319;DHT22;32042;50.916;2.926;2023-01-31T07:19:11;4.40;99.90
46319;DHT22;32042;50.916;2.926;2023-01-31T07:21:37;4.40;99.90
46319;DHT22;32042;50.916;2.926;2023-01-31T07:24:03;4.40;99.90
46319;DHT22;32042;50.916;2.926;2023-01-31T07:26:29;4.40;99.90
46319;DHT22;32042;50.916;2.926;2023-01-31T07:28:56;4.50;99.90
46319;DHT22;32042;50.916;2.926;2023-01-31T07:31:21;4.50;99.90
46319;DHT22;32042;50.916;2.926;2023-01-31T07:33:47;4.50;99.90
46319;DHT22;32042;50.916;2.926;2023-01-31T07:36:14;4.60;99.90
46319;DHT22;32042;50.916;2.926;2023-01-31T07:38:41;4.60;99.90
46319;DHT22;32042;50.916;2.926;2023-01-31T07:41:08;4.60;99.90
46319;DHT22;32042;50.916;2.926;2023-01-31T07:43:35;4.70;99.90
46319;DHT22;32042;50.916;2.926;2023-01-31T07:46:01;4.80;99.90
46319;DHT22;32042;50.916;2.926;2023-01-31T07:48:27;4.80;99.90
46319;DHT22;32042;50.916;2.926;2023-01-31T07:50:58;4.80;99.90
46319;DHT22;32042;50.916;2.926;2023-01-31T07:53:26;4.90;99.90
46319;DHT22;32042;50.916;2.926;2023-01-31T07:55:52;4.90;99.90
46319;DHT22;32042;50.916;2.926;2023-01-31T07:58:18;4.90;99.90
46319;DHT22;32042;50.916;2.926;2023-01-31T08:00:44;4.90;99.90
46319;DHT22;32042;50.916;2.926;2023-01-31T08:03:45;5.00;99.90
46319;DHT22;32042;50.916;2.926;2023-01-31T08:06:11;5.00;99.90
46319;DHT22;32042;50.916;2.926;2023-01-31T08:08:39;5.00;99.90
46319;DHT22;32042;50.916;2.926;2023-01-31T08:11:05;5.10;99.90
46319;DHT22;32042;50.916;2.926;2023-01-31T08:13:35;5.10;99.90
46319;DHT22;32042;50.916;2.926;2023-01-31T08:16:02;5.10;99.90
46319;DHT22;32042;50.916;2.926;2023-01-31T08:18:28;5.10;99.90
46319;DHT22;32042;50.916;2.926;2023-01-31T08:20:55;5.20;99.90
46319;DHT22;32042;50.916;2.926;2023-01-31T08:23:22;5.20;99.90
46319;DHT22;32042;50.916;2.926;2023-01-31T08:25:48;5.30;99.90
46319;DHT22;32042;50.916;2.926;2023-01-31T08:28:14;5.30;99.90
46319;DHT22;32042;50.916;2.926;2023-01-31T08:30:41;5.40;99.90
46319;DHT22;32042;50.916;2.926;2023-01-31T08:33:09;5.50;99.90
46319;DHT22;32042;50.916;2.926;2023-01-31T08:35:35;5.50;99.90
46319;DHT22;32042;50.916;2.926;2023-01-31T08:38:02;5.60;99.90
46319;DHT22;32042;50.916;2.926;2023-01-31T08:40:28;5.70;99.90
46319;DHT22;32042;50.916;2.926;2023-01-31T08:42:58;5.80;99.90
46319;DHT22;32042;50.916;2.926;2023-01-31T08:45:25;5.80;99.90
46319;DHT22;32042;50.916;2.926;2023-01-31T08:47:56;5.90;99.90
46319;DHT22;32042;50.916;2.926;2023-01-31T08:50:23;5.90;99.90
46319;DHT22;32042;50.916;2.926;2023-01-31T08:52:58;5.90;99.90
46319;DHT22;32042;50.916;2.926;2023-01-31T08:55:25;6.00;99.90
46319;DHT22;32042;50.916;2.926;2023-01-31T08:57:51;6.10;99.90
46319;DHT22;32042;50.916;2.926;2023-01-31T09:00:19;6.10;99.90
46319;DHT22;32042;50.916;2.926;2023-01-31T09:02:56;6.20;99.90
46319;DHT22;32042;50.916;2.926;2023-01-31T09:05:23;6.20;99.90
46319;DHT22;32042;50.916;2.926;2023-01-31T09:07:50;6.30;99.90
46319;DHT22;32042;50.916;2.926;2023-01-31T09:10:16;6.40;99.90
46319;DHT22;32042;50.916;2.926;2023-01-31T09:12:42;6.50;99.90
46319;DHT22;32042;50.916;2.926;2023-01-31T09:15:08;6.50;99.90
46319;DHT22;32042;50.916;2.926;2023-01-31T09:17:34;6.60;99.90
46319;DHT22;32042;50.916;2.926;2023-01-31T09:20:00;6.60;99.90
46319;DHT22;32042;50.916;2.926;2023-01-31T09:22:33;6.70;99.90
46319;DHT22;32042;50.916;2.926;2023-01-31T09:25:00;6.70;99.90
46319;DHT22;32042;50.916;2.926;2023-01-31T09:27:26;6.80;99.90
46319;DHT22;32042;50.916;2.926;2023-01-31T09:29:52;6.80;99.90
46319;DHT22;32042;50.916;2.926;2023-01-31T09:32:17;6.80;99.90
46319;DHT22;32042;50.916;2.926;2023-01-31T09:34:44;6.90;99.90
46319;DHT22;32042;50.916;2.926;2023-01-31T09:37:12;7.00;99.90
46319;DHT22;32042;50.916;2.926;2023-01-31T09:39:37;7.00;99.90
46319;DHT22;32042;50.916;2.926;2023-01-31T09:42:21;7.10;99.90
46319;DHT22;32042;50.916;2.926;2023-01-31T09:45:14;7.10;99.90
46319;DHT22;32042;50.916;2.926;2023-01-31T09:47:50;7.20;99.90
46319;DHT22;32042;50.916;2.926;2023-01-31T09:52:53;7.20;99.90
46319;DHT22;32042;50.916;2.926;2023-01-31T09:55:28;7.20;99.90
46319;DHT22;32042;50.916;2.926;2023-01-31T10:07:00;7.30;99.90
46319;DHT22;32042;50.916;2.926;2023-01-31T10:09:45;7.30;99.90
46319;DHT22;32042;50.916;2.926;2023-01-31T10:12:18;7.40;99.90
46319;DHT22;32042;50.916;2.926;2023-01-31T10:15:33;7.60;99.90
46319;DHT22;32042;50.916;2.926;2023-01-31T10:17:46;7.80;99.90
46319;DHT22;32042;50.916;2.926;2023-01-31T10:20:26;8.00;99.90
46319;DHT22;32042;50.916;2.926;2023-01-31T10:23:09;8.10;99.90
46319;DHT22;32042;50.916;2.926;2023-01-31T10:25:43;8.20;99.90
46319;DHT22;32042;50.916;2.926;2023-01-31T10:28:22;8.30;99.90
46319;DHT22;32042;50.916;2.926;2023-01-31T10:39:15;8.70;99.90
46319;DHT22;32042;50.916;2.926;2023-01-31T10:44:53;8.90;99.90
46319;DHT22;32042;50.916;2.926;2023-01-31T10:47:18;8.90;99.90
46319;DHT22;32042;50.916;2.926;2023-01-31T10:49:47;9.00;99.90
46319;DHT22;32042;50.916;2.926;2023-01-31T10:52:33;9.00;99.90
46319;DHT22;32042;50.916;2.926;2023-01-31T10:55:08;9.00;99.90
46319;DHT22;32042;50.916;2.926;2023-01-31T10:57:38;9.00;99.90
46319;DHT22;32042;50.916;2.926;2023-01-31T11:00:04;9.00;99.90
46319;DHT22;32042;50.916;2.926;2023-01-31T11:02:30;9.00;99.90
46319;DHT22;32042;50.916;2.926;2023-01-31T11:04:58;9.10;99.90
46319;DHT22;32042;50.916;2.926;2023-01-31T11:07:28;9.10;99.90
46319;DHT22;32042;50.916;2.926;2023-01-31T11:09:55;9.10;99.90
46319;DHT22;32042;50.916;2.926;2023-01-31T11:12:41;9.10;99.90
46319;DHT22;32042;50.916;2.926;2023-01-31T11:15:17;9.10;99.90
46319;DHT22;32042;50.916;2.926;2023-01-31T11:17:45;9.10;99.90
46319;DHT22;32042;50.916;2.926;2023-01-31T11:20:23;9.20;99.90
46319;DHT22;32042;50.916;2.926;2023-01-31T11:22:50;9.30;99.90
46319;DHT22;32042;50.916;2.926;2023-01-31T11:25:21;9.30;99.90
46319;DHT22;32042;50.916;2.926;2023-01-31T11:27:48;9.30;99.90
46319;DHT22;32042;50.916;2.926;2023-01-31T11:30:34;9.30;99.90
46319;DHT22;32042;50.916;2.926;2023-01-31T11:33:01;9.30;99.90
46319;DHT22;32042;50.916;2.926;2023-01-31T11:35:31;9.30;99.90
46319;DHT22;32042;50.916;2.926;2023-01-31T11:38:02;9.30;99.90
46319;DHT22;32042;50.916;2.926;2023-01-31T11:40:34;9.30;99.90
46319;DHT22;32042;50.916;2.926;2023-01-31T11:45:59;9.30;99.90
46319;DHT22;32042;50.916;2.926;2023-01-31T11:48:43;9.40;99.90
46319;DHT22;32042;50.916;2.926;2023-01-31T11:51:09;9.40;99.90
46319;DHT22;32042;50.916;2.926;2023-01-31T11:53:48;9.40;99.90
46319;DHT22;32042;50.916;2.926;2023-01-31T11:56:15;9.30;99.90
46319;DHT22;32042;50.916;2.926;2023-01-31T11:58:43;9.40;99.90
46319;DHT22;32042;50.916;2.926;2023-01-31T12:01:18;9.30;99.90
46319;DHT22;32042;50.916;2.926;2023-01-31T12:03:55;9.30;99.90
46319;DHT22;32042;50.916;2.926;2023-01-31T12:06:39;9.30;99.90
46319;DHT22;32042;50.916;2.926;2023-01-31T12:09:41;9.30;99.90
46319;DHT22;32042;50.916;2.926;2023-01-31T12:12:29;9.30;99.90
46319;DHT22;32042;50.916;2.926;2023-01-31T12:15:01;9.20;99.90
46319;DHT22;32042;50.916;2.926;2023-01-31T12:17:29;9.30;99.90
46319;DHT22;32042;50.916;2.926;2023-01-31T12:20:22;9.30;99.90
46319;DHT22;32042;50.916;2.926;2023-01-31T12:26:12;9.20;99.90
46319;DHT22;32042;50.916;2.926;2023-01-31T12:31:48;9.20;99.90
46319;DHT22;32042;50.916;2.926;2023-01-31T12:37:34;9.20;99.90
46319;DHT22;32042;50.916;2.926;2023-01-31T12:43:01;9.10;99.90
46319;DHT22;32042;50.916;2.926;2023-01-31T12:48:32;9.10;99.90
46319;DHT22;32042;50.916;2.926;2023-01-31T12:53:49;9.00;99.90
46319;DHT22;32042;50.916;2.926;2023-01-31T12:59:33;8.90;99.90
46319;DHT22;32042;50.916;2.926;2023-01-31T13:04:44;8.90;99.90
46319;DHT22;32042;50.916;2.926;2023-01-31T13:07:23;8.90;99.90
46319;DHT22;32042;50.916;2.926;2023-01-31T13:09:51;8.90;99.90
46319;DHT22;32042;50.916;2.926;2023-01-31T13:12:20;8.90;99.90
46319;DHT22;32042;50.916;2.926;2023-01-31T13:15:03;8.90;99.90
46319;DHT22;32042;50.916;2.926;2023-01-31T13:17:32;8.90;99.90
46319;DHT22;32042;50.916;2.926;2023-01-31T13:20:02;8.90;99.90
46319;DHT22;32042;50.916;2.926;2023-01-31T13:25:38;8.90;99.90
46319;DHT22;32042;50.916;2.926;2023-01-31T13:28:33;9.00;99.90
46319;DHT22;32042;50.916;2.926;2023-01-31T13:31:19;9.00;99.90
46319;DHT22;32042;50.916;2.926;2023-01-31T13:33:51;9.00;99.90
46319;DHT22;32042;50.916;2.926;2023-01-31T13:36:32;9.00;99.90
46319;DHT22;32042;50.916;2.926;2023-01-31T13:39:05;9.00;99.90
46319;DHT22;32042;50.916;2.926;2023-01-31T13:41:33;9.00;99.90
46319;DHT22;32042;50.916;2.926;2023-01-31T13:44:00;9.10;99.90
46319;DHT22;32042;50.916;2.926;2023-01-31T13:46:36;9.10;99.90
46319;DHT22;32042;50.916;2.926;2023-01-31T13:49:12;9.10;99.90
46319;DHT22;32042;50.916;2.926;2023-01-31T13:51:56;9.10;99.90
46319;DHT22;32042;50.916;2.926;2023-01-31T13:54:33;9.20;99.90
46319;DHT22;32042;50.916;2.926;2023-01-31T13:57:00;9.20;99.90
46319;DHT22;32042;50.916;2.926;2023-01-31T13:59:30;9.20;99.90
46319;DHT22;32042;50.916;2.926;2023-01-31T14:01:59;9.30;99.90
46319;DHT22;32042;50.916;2.926;2023-01-31T14:04:33;9.40;99.90
46319;DHT22;32042;50.916;2.926;2023-01-31T14:09:33;9.50;99.90
46319;DHT22;32042;50.916;2.926;2023-01-31T14:12:00;9.60;99.90
46319;DHT22;32042;50.916;2.926;2023-01-31T14:14:46;9.60;99.90
46319;DHT22;32042;50.916;2.926;2023-01-31T14:24:58;9.60;99.90
46319;DHT22;32042;50.916;2.926;2023-01-31T14:27:32;9.60;99.90
46319;DHT22;32042;50.916;2.926;2023-01-31T14:37:37;9.80;99.90
46319;DHT22;32042;50.916;2.926;2023-01-31T14:40:30;9.80;99.90
46319;DHT22;32042;50.916;2.926;2023-01-31T14:43:25;9.80;99.90
46319;DHT22;32042;50.916;2.926;2023-01-31T14:46:12;9.80;99.90
46319;DHT22;32042;50.916;2.926;2023-01-31T14:55:00;9.70;99.90
46319;DHT22;32042;50.916;2.926;2023-01-31T14:57:30;9.60;99.90
46319;DHT22;32042;50.916;2.926;2023-01-31T15:00:04;9.60;99.90
46319;DHT22;32042;50.916;2.926;2023-01-31T15:05:03;9.60;99.90
46319;DHT22;32042;50.916;2.926;2023-01-31T15:07:31;9.70;99.90
46319;DHT22;32042;50.916;2.926;2023-01-31T15:09:57;9.70;99.90
46319;DHT22;32042;50.916;2.926;2023-01-31T15:12:55;9.70;99.90
46319;DHT22;32042;50.916;2.926;2023-01-31T15:15:35;9.60;99.90
46319;DHT22;32042;50.916;2.926;2023-01-31T15:18:09;9.60;99.90
46319;DHT22;32042;50.916;2.926;2023-01-31T15:20:42;9.50;99.90
46319;DHT22;32042;50.916;2.926;2023-01-31T15:23:22;9.50;99.90
46319;DHT22;32042;50.916;2.926;2023-01-31T15:25:48;9.50;99.90
46319;DHT22;32042;50.916;2.926;2023-01-31T15:28:20;9.60;99.90
46319;DHT22;32042;50.916;2.926;2023-01-31T15:30:47;9.50;99.90
46319;DHT22;32042;50.916;2.926;2023-01-31T15:33:21;9.50;99.90
46319;DHT22;32042;50.916;2.926;2023-01-31T15:36:17;9.50;99.90
46319;DHT22;32042;50.916;2.926;2023-01-31T15:38:57;9.50;99.90
46319;DHT22;32042;50.916;2.926;2023-01-31T15:41:37;9.50;99.90
46319;DHT22;32042;50.916;2.926;2023-01-31T15:44:18;9.40;99.90
46319;DHT22;32042;50.916;2.926;2023-01-31T15:46:46;9.50;99.90
46319;DHT22;32042;50.916;2.926;2023-01-31T15:49:28;9.40;99.90
46319;DHT22;32042;50.916;2.926;2023-01-31T15:55:11;9.40;99.90
46319;DHT22;32042;50.916;2.926;2023-01-31T15:57:50;9.40;99.90
46319;DHT22;32042;50.916;2.926;2023-01-31T16:02:48;9.40;99.90
46319;DHT22;32042;50.916;2.926;2023-01-31T16:05:19;9.30;99.90
46319;DHT22;32042;50.916;2.926;2023-01-31T16:07:46;9.30;99.90
46319;DHT22;32042;50.916;2.926;2023-01-31T16:10:13;9.20;99.90
46319;DHT22;32042;50.916;2.926;2023-01-31T16:12:43;9.20;99.90
46319;DHT22;32042;50.916;2.926;2023-01-31T16:15:25;9.20;99.90
46319;DHT22;32042;50.916;2.926;2023-01-31T16:17:53;9.20;99.90
46319;DHT22;32042;50.916;2.926;2023-01-31T16:20:39;9.20;99.90
46319;DHT22;32042;50.916;2.926;2023-01-31T16:23:25;9.10;99.90
46319;DHT22;32042;50.916;2.926;2023-01-31T16:28:41;9.20;99.90
46319;DHT22;32042;50.916;2.926;2023-01-31T16:31:10;9.10;99.90
46319;DHT22;32042;50.916;2.926;2023-01-31T16:33:38;9.10;99.90
46319;DHT22;32042;50.916;2.926;2023-01-31T16:36:10;9.10;99.90
46319;DHT22;32042;50.916;2.926;2023-01-31T16:38:40;9.10;99.90
46319;DHT22;32042;50.916;2.926;2023-01-31T16:41:08;9.10;99.90
46319;DHT22;32042;50.916;2.926;2023-01-31T16:43:39;9.10;99.90
46319;DHT22;32042;50.916;2.926;2023-01-31T16:46:34;9.10;99.90
46319;DHT22;32042;50.916;2.926;2023-01-31T16:49:20;9.10;99.90
46319;DHT22;32042;50.916;2.926;2023-01-31T16:51:47;9.10;99.90
46319;DHT22;32042;50.916;2.926;2023-01-31T16:54:27;9.00;99.90
46319;DHT22;32042;50.916;2.926;2023-01-31T16:59:47;9.00;99.90
46319;DHT22;32042;50.916;2.926;2023-01-31T17:02:29;9.10;99.90
46319;DHT22;32042;50.916;2.926;2023-01-31T17:04:58;9.10;99.90
46319;DHT22;32042;50.916;2.926;2023-01-31T17:07:33;9.10;99.90
46319;DHT22;32042;50.916;2.926;2023-01-31T17:10:04;9.10;99.90
46319;DHT22;32042;50.916;2.926;2023-01-31T17:12:33;9.10;99.90
46319;DHT22;32042;50.916;2.926;2023-01-31T17:15:00;9.10;99.90
46319;DHT22;32042;50.916;2.926;2023-01-31T17:17:32;9.10;99.90
46319;DHT22;32042;50.916;2.926;2023-01-31T17:20:02;9.10;99.90
46319;DHT22;32042;50.916;2.926;2023-01-31T17:22:28;9.10;99.90
46319;DHT22;32042;50.916;2.926;2023-01-31T17:24:53;9.10;99.90
46319;DHT22;32042;50.916;2.926;2023-01-31T17:27:20;9.10;99.90
46319;DHT22;32042;50.916;2.926;2023-01-31T17:29:46;9.10;99.90
46319;DHT22;32042;50.916;2.926;2023-01-31T17:32:15;9.10;99.90
46319;DHT22;32042;50.916;2.926;2023-01-31T17:34:42;9.00;99.90
46319;DHT22;32042;50.916;2.926;2023-01-31T17:37:10;9.00;99.90
46319;DHT22;32042;50.916;2.926;2023-01-31T17:39:36;8.90;99.90
46319;DHT22;32042;50.916;2.926;2023-01-31T17:42:02;8.90;99.90
46319;DHT22;32042;50.916;2.926;2023-01-31T17:44:29;8.90;99.90
46319;DHT22;32042;50.916;2.926;2023-01-31T17:46:55;8.90;99.90
46319;DHT22;32042;50.916;2.926;2023-01-31T17:49:20;8.80;99.90
46319;DHT22;32042;50.916;2.926;2023-01-31T17:51:46;8.80;99.90
46319;DHT22;32042;50.916;2.926;2023-01-31T17:54:12;8.80;99.90
46319;DHT22;32042;50.916;2.926;2023-01-31T17:56:38;8.90;99.90
46319;DHT22;32042;50.916;2.926;2023-01-31T17:59:03;8.80;99.90
46319;DHT22;32042;50.916;2.926;2023-01-31T18:01:30;8.80;99.90
46319;DHT22;32042;50.916;2.926;2023-01-31T18:03:55;8.90;99.90
46319;DHT22;32042;50.916;2.926;2023-01-31T18:06:22;8.80;99.90
46319;DHT22;32042;50.916;2.926;2023-01-31T18:08:48;8.80;99.90
46319;DHT22;32042;50.916;2.926;2023-01-31T18:11:15;8.70;99.90
46319;DHT22;32042;50.916;2.926;2023-01-31T18:13:42;8.70;99.90
46319;DHT22;32042;50.916;2.926;2023-01-31T18:16:11;8.70;99.90
46319;DHT22;32042;50.916;2.926;2023-01-31T18:18:40;8.70;99.90
46319;DHT22;32042;50.916;2.926;2023-01-31T18:21:24;8.70;99.90
46319;DHT22;32042;50.916;2.926;2023-01-31T18:23:51;8.70;99.90